Time;durP1;ratioP1;P1;durP2;ratioP2;P2;SDS_P1;SDS_P2;PMS_P1;PMS_P2;Temp;Humidity;BMP_temperature;BMP_pressure;BME280_temperature;BME280_humidity;BME280_pressure;Samples;Min_cycle;Max_cycle;Signal;HPM_P1;HPM_P2
2023/04/12 00:00:44;;;;;;;6.77;1.87;;;11.50;88.40;;;;;;10429339;28;20236;-70
2023/04/12 00:05:53;;;;;;;4.40;1.63;;;11.60;88.40;;;;;;10425470;28;20229;-69
2023/04/12 00:10:53;;;;;;;3.73;1.43;;;11.60;88.50;;;;;;10432345;28;20600;-68
2023/04/12 00:15:54;;;;;;;4.63;1.20;;;11.60;89.60;;;;;;10427545;28;20224;-68
2023/04/12 00:20:55;;;;;;;10.90;1.90;;;11.60;90.50;;;;;;10421292;28;20560;-68
2023/04/12 00:25:55;;;;;;;5.43;1.63;;;11.50;90.60;;;;;;10431103;28;20227;-69
2023/04/12 00:30:56;;;;;;;5.33;1.63;;;11.50;90.80;;;;;;10423682;28;20231;-71
2023/04/12 00:35:56;;;;;;;4.80;1.53;;;11.50;92.50;;;;;;10425841;28;20228;-70
2023/04/12 00:40:57;;;;;;;8.73;2.30;;;11.40;94.10;;;;;;10422168;28;20217;-72
2023/04/12 00:46:01;;;;;;;4.27;2.27;;;11.30;95.50;;;;;;10429304;28;20274;-72
2023/04/12 00:51:02;;;;;;;6.67;2.10;;;11.10;96.60;;;;;;10424201;28;20243;-72
2023/04/12 00:56:03;;;;;;;6.63;2.43;;;10.90;97.90;;;;;;10418065;28;20213;-73
2023/04/12 01:01:04;;;;;;;6.40;2.23;;;10.90;99.90;;;;;;10428663;28;20938;-72
2023/04/12 01:06:25;;;;;;;8.17;2.27;;;10.80;99.90;;;;;;10422440;28;20212;-69
2023/04/12 01:11:37;;;;;;;5.43;2.07;;;10.80;99.90;;;;;;10410123;28;20867;-69
2023/04/12 01:17:03;;;;;;;7.20;2.30;;;10.70;99.90;;;;;;10417068;28;20228;-71
2023/04/12 01:22:22;;;;;;;6.60;2.10;;;10.60;99.90;;;;;;10408216;28;20224;-71
2023/04/12 01:27:39;;;;;;;5.00;2.37;;;10.50;99.90;;;;;;10424667;28;20300;-71
2023/04/12 01:32:44;;;;;;;4.30;2.03;;;10.40;99.90;;;;;;10417407;28;20312;-73
2023/04/12 01:37:45;;;;;;;5.63;2.50;;;10.40;99.90;;;;;;10426304;28;20220;-71
2023/04/12 01:42:45;;;;;;;6.03;2.30;;;10.20;99.90;;;;;;10422910;28;20209;-73
2023/04/12 01:47:46;;;;;;;7.20;2.67;;;10.20;99.90;;;;;;10428142;28;20620;-70
2023/04/12 01:53:27;;;;;;;8.13;2.90;;;10.20;99.90;;;;;;10420061;28;20239;-70
2023/04/12 01:58:31;;;;;;;5.87;2.40;;;10.20;99.90;;;;;;10356691;28;20715;-70
2023/04/12 02:03:33;;;;;;;7.57;2.93;;;10.10;99.90;;;;;;10434159;28;20703;-71
2023/04/12 02:08:36;;;;;;;6.87;2.57;;;10.00;99.90;;;;;;10425829;28;20219;-70
2023/04/12 02:13:37;;;;;;;5.37;2.53;;;9.80;99.90;;;;;;10429218;28;20714;-71
2023/04/12 02:18:40;;;;;;;6.90;2.60;;;9.80;99.90;;;;;;10432458;28;20224;-72
2023/04/12 02:23:42;;;;;;;5.63;2.43;;;9.70;99.90;;;;;;10441218;28;20223;-70
2023/04/12 02:28:45;;;;;;;7.00;2.50;;;9.60;99.90;;;;;;10421964;28;20695;-74
2023/04/12 02:33:45;;;;;;;8.77;3.40;;;9.50;99.90;;;;;;10413918;28;20216;-71
2023/04/12 02:38:49;;;;;;;7.47;2.83;;;9.40;99.90;;;;;;10424592;28;20219;-74
2023/04/12 02:43:50;;;;;;;7.17;2.83;;;9.40;99.90;;;;;;10429534;28;20641;-73
2023/04/12 02:48:51;;;;;;;8.60;2.90;;;9.30;99.90;;;;;;10431790;28;20285;-74
2023/04/12 02:53:51;;;;;;;6.40;2.80;;;9.30;99.90;;;;;;10429782;28;20630;-70
2023/04/12 02:58:52;;;;;;;6.07;2.90;;;9.30;99.90;;;;;;10424557;28;20223;-74
2023/04/12 03:03:52;;;;;;;8.80;2.63;;;9.30;99.90;;;;;;10440168;28;20227;-73
2023/04/12 03:08:53;;;;;;;5.37;2.40;;;9.30;99.90;;;;;;10424501;28;20212;-73
2023/04/12 03:13:54;;;;;;;5.03;2.30;;;9.30;99.90;;;;;;10421266;28;20292;-70
2023/04/12 03:18:55;;;;;;;5.00;2.53;;;9.30;99.90;;;;;;10432659;28;20298;-70
2023/04/12 03:23:56;;;;;;;6.47;2.80;;;9.30;99.90;;;;;;10420875;28;20632;-68
2023/04/12 03:28:59;;;;;;;5.70;2.43;;;9.20;99.90;;;;;;10433737;28;20220;-70
2023/04/12 03:34:00;;;;;;;5.90;2.30;;;9.20;99.90;;;;;;10426736;28;20220;-71
2023/04/12 03:39:01;;;;;;;5.53;2.57;;;9.20;99.90;;;;;;10430843;28;20243;-70
2023/04/12 03:44:02;;;;;;;8.03;3.00;;;9.20;99.90;;;;;;10425356;28;20262;-69
2023/04/12 03:49:03;;;;;;;5.57;3.10;;;9.10;99.90;;;;;;10426596;28;20588;-70
2023/04/12 03:54:03;;;;;;;7.47;3.00;;;9.10;99.90;;;;;;10417216;28;20216;-71
2023/04/12 03:59:07;;;;;;;4.97;2.60;;;9.00;99.90;;;;;;10425417;28;20208;-74
2023/04/12 04:04:08;;;;;;;5.77;2.80;;;9.00;99.90;;;;;;10424708;28;20221;-73
2023/04/12 04:09:08;;;;;;;4.73;2.10;;;8.90;99.90;;;;;;10407904;28;20602;-72
2023/04/12 04:14:09;;;;;;;4.53;2.03;;;9.00;99.90;;;;;;10432032;28;20235;-73
2023/04/12 04:19:10;;;;;;;4.57;2.23;;;8.90;99.90;;;;;;10423721;28;20225;-71
2023/04/12 04:24:12;;;;;;;5.03;2.20;;;8.80;99.90;;;;;;10432728;28;20302;-72
2023/04/12 04:29:12;;;;;;;6.03;2.23;;;8.80;99.90;;;;;;10421457;28;20266;-72
2023/04/12 04:34:13;;;;;;;4.83;1.80;;;8.80;99.90;;;;;;10409495;28;20220;-70
2023/04/12 04:39:13;;;;;;;4.90;1.87;;;8.80;99.90;;;;;;10431458;28;20637;-74
2023/04/12 04:44:14;;;;;;;4.73;1.80;;;8.80;99.90;;;;;;10425114;28;20221;-75
2023/04/12 04:49:15;;;;;;;3.20;1.83;;;8.70;99.90;;;;;;10431939;28;20226;-75
2023/04/12 04:54:15;;;;;;;3.43;1.87;;;8.70;99.90;;;;;;10422989;28;20225;-76
2023/04/12 04:59:16;;;;;;;4.30;2.30;;;8.70;99.90;;;;;;10430556;28;20224;-75
2023/04/12 05:04:17;;;;;;;3.40;1.53;;;8.60;99.90;;;;;;10433811;28;20223;-75
2023/04/12 05:09:18;;;;;;;6.10;1.73;;;8.70;99.90;;;;;;10409002;28;20220;-75
2023/04/12 05:14:19;;;;;;;4.10;2.00;;;8.70;99.90;;;;;;10428771;28;20219;-74
2023/04/12 05:19:19;;;;;;;2.40;1.93;;;8.60;99.90;;;;;;10429641;28;20250;-74
2023/04/12 05:24:20;;;;;;;4.87;2.00;;;8.70;99.90;;;;;;10425179;28;20334;-73
2023/04/12 05:29:21;;;;;;;6.57;2.23;;;8.70;99.90;;;;;;10415955;28;20224;-74
2023/04/12 05:34:21;;;;;;;2.90;1.77;;;8.70;99.90;;;;;;10414700;28;20216;-70
2023/04/12 05:39:22;;;;;;;3.97;1.93;;;8.70;99.90;;;;;;10428832;28;20358;-69
2023/04/12 05:44:22;;;;;;;4.33;1.67;;;8.80;99.90;;;;;;10419508;28;20216;-71
2023/04/12 05:49:23;;;;;;;2.63;1.40;;;8.80;99.90;;;;;;10420274;28;20228;-70
2023/04/12 05:54:24;;;;;;;2.93;1.60;;;8.90;99.90;;;;;;10423573;28;20216;-70
2023/04/12 05:59:25;;;;;;;3.40;1.70;;;8.90;99.90;;;;;;10427692;28;20237;-73
2023/04/12 06:04:25;;;;;;;5.10;1.77;;;8.80;99.90;;;;;;10414615;28;20701;-73
2023/04/12 06:09:26;;;;;;;4.33;1.60;;;8.80;99.90;;;;;;10423761;28;20224;-72
2023/04/12 06:14:27;;;;;;;2.67;1.20;;;8.80;99.90;;;;;;10430388;28;20217;-72
2023/04/12 06:19:27;;;;;;;1.90;1.30;;;8.80;99.90;;;;;;10427420;28;20254;-72
2023/04/12 06:24:28;;;;;;;4.60;1.57;;;8.80;99.90;;;;;;10423224;28;20303;-72
2023/04/12 06:29:28;;;;;;;2.63;1.67;;;8.80;99.90;;;;;;10421762;28;20230;-71
2023/04/12 06:34:29;;;;;;;2.63;1.87;;;8.90;99.90;;;;;;10424746;28;20839;-72
2023/04/12 06:39:29;;;;;;;2.73;1.40;;;9.00;99.90;;;;;;10429701;28;20212;-73
2023/04/12 06:44:32;;;;;;;3.07;1.80;;;9.10;99.90;;;;;;10434354;28;20216;-72
2023/04/12 06:49:32;;;;;;;1.30;1.07;;;9.20;99.90;;;;;;10436699;28;20217;-72
2023/04/12 06:54:39;;;;;;;5.47;1.77;;;9.30;99.90;;;;;;10427451;28;20216;-71
2023/04/12 06:59:40;;;;;;;1.87;1.10;;;9.40;99.90;;;;;;10431018;28;20231;-72
2023/04/12 07:04:40;;;;;;;3.00;1.30;;;9.40;99.90;;;;;;10427163;28;20229;-73
2023/04/12 07:09:41;;;;;;;3.40;1.50;;;9.40;99.90;;;;;;10431708;28;20223;-71
2023/04/12 07:14:42;;;;;;;3.13;1.60;;;9.40;99.90;;;;;;10426767;28;20228;-71
2023/04/12 07:19:43;;;;;;;1.87;1.30;;;9.30;99.90;;;;;;10431708;28;20231;-71
2023/04/12 07:24:43;;;;;;;3.00;1.67;;;9.30;99.90;;;;;;10423240;28;20655;-72
2023/04/12 07:29:44;;;;;;;2.00;1.23;;;9.50;99.90;;;;;;10424340;28;20269;-72
2023/04/12 07:34:45;;;;;;;3.17;1.60;;;9.60;99.90;;;;;;10427387;28;20238;-72
2023/04/12 07:39:45;;;;;;;4.83;1.87;;;9.60;99.90;;;;;;10431174;28;20228;-72
2023/04/12 07:44:46;;;;;;;3.23;1.80;;;9.70;99.90;;;;;;10425050;28;20220;-71
2023/04/12 07:49:46;;;;;;;3.93;2.07;;;9.70;99.90;;;;;;10418810;28;20224;-71
2023/04/12 07:54:47;;;;;;;4.77;1.77;;;9.80;99.90;;;;;;10428970;28;20224;-72
2023/04/12 07:59:47;;;;;;;1.80;1.37;;;9.80;99.90;;;;;;10430898;28;20229;-72
2023/04/12 08:04:48;;;;;;;3.37;1.80;;;10.00;99.90;;;;;;10428077;28;20213;-72
2023/04/12 08:09:49;;;;;;;3.10;1.60;;;9.90;99.90;;;;;;10424795;28;20224;-71
2023/04/12 08:14:50;;;;;;;2.73;1.83;;;10.00;99.90;;;;;;10425027;28;20815;-72
2023/04/12 08:19:50;;;;;;;3.60;1.70;;;10.00;99.90;;;;;;10427947;28;20235;-72
2023/04/12 08:24:51;;;;;;;5.80;2.10;;;9.90;99.90;;;;;;10422079;28;20215;-71
2023/04/12 08:29:52;;;;;;;5.37;2.17;;;9.80;99.90;;;;;;10429166;28;20293;-72
2023/04/12 08:34:52;;;;;;;4.30;2.00;;;9.80;99.90;;;;;;10420838;28;20217;-72
2023/04/12 08:39:53;;;;;;;4.07;2.40;;;9.90;99.90;;;;;;10429648;28;20227;-72
2023/04/12 08:44:53;;;;;;;2.80;2.00;;;10.00;99.90;;;;;;10431546;28;20227;-72
2023/04/12 08:49:55;;;;;;;5.03;2.40;;;10.10;99.90;;;;;;10426682;28;20231;-73
2023/04/12 08:54:56;;;;;;;6.00;2.03;;;10.10;99.90;;;;;;10429469;28;20224;-72
2023/04/12 09:00:02;;;;;;;5.60;2.40;;;10.30;99.90;;;;;;10422991;28;20212;-73
2023/04/12 09:05:03;;;;;;;5.30;2.03;;;10.40;99.90;;;;;;10421119;28;20721;-71
2023/04/12 09:10:04;;;;;;;3.63;2.27;;;10.40;99.90;;;;;;10423628;28;20235;-72
2023/04/12 09:15:16;;;;;;;6.07;2.50;;;10.60;99.90;;;;;;10417150;28;20216;-71
2023/04/12 09:20:17;;;;;;;5.17;2.50;;;10.80;99.90;;;;;;10414683;28;20208;-72
2023/04/12 09:25:17;;;;;;;6.13;2.50;;;10.90;99.90;;;;;;10421982;28;20651;-72
2023/04/12 09:30:19;;;;;;;5.60;2.53;;;10.90;99.90;;;;;;10420292;28;20233;-71
2023/04/12 09:35:33;;;;;;;5.17;2.73;;;10.90;99.90;;;;;;10420670;28;20215;-72
2023/04/12 09:40:35;;;;;;;5.20;2.77;;;10.90;99.90;;;;;;10421137;28;20222;-71
2023/04/12 09:45:40;;;;;;;7.27;2.57;;;11.10;99.90;;;;;;10425422;28;20227;-72
2023/04/12 09:50:40;;;;;;;6.70;2.90;;;11.30;99.90;;;;;;10425505;28;20239;-72
2023/04/12 09:55:41;;;;;;;6.63;2.50;;;11.40;99.90;;;;;;10426417;28;20239;-72
2023/04/12 10:00:42;;;;;;;5.50;2.30;;;11.40;99.90;;;;;;10421238;28;20274;-73
2023/04/12 10:05:43;;;;;;;6.40;2.67;;;11.40;99.90;;;;;;10420522;28;20215;-73
2023/04/12 10:10:45;;;;;;;5.73;2.77;;;11.40;99.90;;;;;;10419752;28;20224;-73
2023/04/12 10:15:49;;;;;;;4.57;3.00;;;11.40;99.90;;;;;;10431917;28;20320;-71
2023/04/12 10:20:50;;;;;;;5.90;3.23;;;11.40;99.90;;;;;;10430964;28;20312;-72
2023/04/12 10:25:52;;;;;;;6.30;3.33;;;11.40;99.90;;;;;;10433400;28;20254;-72
2023/04/12 10:30:56;;;;;;;3.73;2.80;;;11.50;99.90;;;;;;10431347;28;20259;-72
2023/04/12 10:36:01;;;;;;;6.57;3.10;;;11.50;99.90;;;;;;10433861;28;20298;-72
2023/04/12 10:41:16;;;;;;;5.53;2.90;;;11.60;99.90;;;;;;10429619;28;20217;-71
2023/04/12 10:46:44;;;;;;;7.13;2.83;;;11.80;99.90;;;;;;10427778;28;20250;-73
2023/04/12 10:52:02;;;;;;;3.97;3.00;;;12.10;99.90;;;;;;10431631;28;20243;-73
2023/04/12 10:57:04;;;;;;;5.43;3.13;;;12.30;99.90;;;;;;10436291;28;20277;-72
2023/04/12 11:02:10;;;;;;;3.27;2.67;;;13.00;99.90;;;;;;10427017;28;20244;-72
2023/04/12 11:07:11;;;;;;;5.63;2.90;;;13.40;99.90;;;;;;10419511;28;20315;-72
2023/04/12 11:12:15;;;;;;;4.70;2.70;;;13.60;99.90;;;;;;10434594;28;20601;-72
2023/04/12 11:17:15;;;;;;;4.50;2.60;;;13.50;99.90;;;;;;10434636;28;20299;-72
2023/04/12 11:22:18;;;;;;;3.57;2.70;;;13.40;99.90;;;;;;10427688;28;20283;-72
2023/04/12 11:27:20;;;;;;;5.60;3.33;;;13.50;99.90;;;;;;10423404;28;20582;-72
2023/04/12 11:32:23;;;;;;;5.97;2.83;;;13.40;99.90;;;;;;10424189;28;20284;-72
2023/04/12 11:37:25;;;;;;;5.20;2.87;;;13.20;99.90;;;;;;10434889;28;20270;-73
2023/04/12 11:42:27;;;;;;;7.30;3.10;;;12.90;99.90;;;;;;10432426;28;20215;-71
2023/04/12 11:47:28;;;;;;;5.50;3.13;;;12.60;99.90;;;;;;10425343;28;20222;-72
2023/04/12 11:52:35;;;;;;;5.20;3.07;;;12.50;99.90;;;;;;10429632;28;20236;-72
2023/04/12 11:57:37;;;;;;;5.23;3.00;;;12.50;99.90;;;;;;10427912;28;20267;-71
2023/04/12 12:02:41;;;;;;;4.87;2.90;;;12.50;99.90;;;;;;10429897;28;20262;-73
2023/04/12 12:07:41;;;;;;;6.63;2.90;;;12.90;99.90;;;;;;10422905;28;20252;-73
2023/04/12 12:12:43;;;;;;;4.43;2.67;;;13.10;99.90;;;;;;10422921;28;20218;-72
2023/04/12 12:17:44;;;;;;;4.00;3.00;;;13.10;99.90;;;;;;10428429;28;20220;-72
2023/04/12 12:22:46;;;;;;;5.13;3.10;;;13.20;99.90;;;;;;10429828;28;20212;-72
2023/04/12 12:27:49;;;;;;;5.30;3.30;;;13.60;99.90;;;;;;10427958;28;20216;-72
2023/04/12 12:32:53;;;;;;;6.57;3.13;;;13.30;99.90;;;;;;10429386;28;20224;-72
2023/04/12 12:37:57;;;;;;;5.93;3.67;;;13.00;99.90;;;;;;10423817;28;20285;-71
2023/04/12 12:42:58;;;;;;;8.07;3.90;;;13.00;99.90;;;;;;10430909;28;20222;-72
2023/04/12 12:48:03;;;;;;;7.60;4.30;;;13.00;99.90;;;;;;10424795;28;20235;-71
2023/04/12 12:53:05;;;;;;;5.33;4.07;;;12.70;99.90;;;;;;10423634;28;20263;-71
2023/04/12 12:58:05;;;;;;;8.17;4.53;;;12.50;99.90;;;;;;10423327;28;20376;-72
2023/04/12 13:03:06;;;;;;;5.57;4.23;;;12.40;99.90;;;;;;10424967;28;20273;-72
2023/04/12 13:08:06;;;;;;;6.03;4.10;;;12.40;99.90;;;;;;10423291;28;20220;-72
2023/04/12 13:13:07;;;;;;;7.87;3.47;;;12.50;99.90;;;;;;10427555;28;20218;-72
2023/04/12 13:18:08;;;;;;;8.50;3.47;;;12.60;99.90;;;;;;10422917;28;20226;-71
2023/04/12 13:23:09;;;;;;;8.30;3.73;;;12.50;99.90;;;;;;10420610;28;20680;-72
2023/04/12 13:28:09;;;;;;;5.90;3.63;;;12.50;99.90;;;;;;10430426;28;20224;-71
2023/04/12 13:33:10;;;;;;;4.70;3.13;;;12.70;99.90;;;;;;10417259;28;20209;-72
2023/04/12 13:38:10;;;;;;;6.93;3.67;;;12.90;99.90;;;;;;10406866;28;20287;-72
2023/04/12 13:43:11;;;;;;;5.90;3.27;;;12.90;99.90;;;;;;10430603;28;20231;-72
2023/04/12 13:48:11;;;;;;;2.63;1.97;;;12.60;99.90;;;;;;10422352;28;20252;-72
2023/04/12 13:53:13;;;;;;;7.03;2.17;;;12.20;99.90;;;;;;10437250;28;20220;-72
2023/04/12 13:58:14;;;;;;;4.10;2.10;;;12.00;99.90;;;;;;10431151;28;20226;-71
2023/04/12 14:03:14;;;;;;;5.43;2.83;;;12.00;99.90;;;;;;10423899;28;20226;-73
2023/04/12 14:08:15;;;;;;;7.17;4.40;;;12.10;99.90;;;;;;10432044;28;20224;-71
2023/04/12 14:13:15;;;;;;;5.73;3.30;;;12.30;99.90;;;;;;10437278;28;20773;-72
2023/04/12 14:18:16;;;;;;;4.67;3.20;;;12.70;99.90;;;;;;10427418;28;20224;-72
2023/04/12 14:23:37;;;;;;;4.47;2.70;;;13.10;99.90;;;;;;10437387;28;20257;-73
2023/04/12 14:28:38;;;;;;;5.63;2.60;;;13.10;99.90;;;;;;10433078;28;20232;-71
2023/04/12 14:33:39;;;;;;;6.00;2.63;;;13.00;99.90;;;;;;10432185;28;20322;-71
2023/04/12 14:38:40;;;;;;;3.30;2.43;;;12.80;99.90;;;;;;10432059;28;20705;-73
2023/04/12 14:43:41;;;;;;;5.17;3.27;;;12.60;99.90;;;;;;10433486;28;20225;-72
2023/04/12 14:48:43;;;;;;;4.03;1.50;;;12.50;99.90;;;;;;10431021;28;20220;-72
2023/04/12 14:53:43;;;;;;;4.83;3.00;;;12.30;99.90;;;;;;10429751;28;20275;-72
2023/04/12 14:58:44;;;;;;;4.30;1.40;;;12.30;99.90;;;;;;10431073;28;20212;-71
2023/04/12 15:03:46;;;;;;;2.87;1.30;;;12.50;99.90;;;;;;10430548;28;20220;-72
2023/04/12 15:08:48;;;;;;;1.30;1.17;;;12.60;99.90;;;;;;10433086;28;20578;-72
2023/04/12 15:13:48;;;;;;;2.67;1.20;;;12.70;99.90;;;;;;10430412;28;20271;-72
2023/04/12 15:18:50;;;;;;;2.23;0.87;;;12.70;99.90;;;;;;10428862;28;20558;-72
2023/04/12 15:23:50;;;;;;;1.03;0.67;;;12.70;99.90;;;;;;10422662;28;20216;-72
2023/04/12 15:28:51;;;;;;;1.53;0.60;;;12.50;99.90;;;;;;10422897;28;20220;-71
2023/04/12 15:33:52;;;;;;;1.13;0.70;;;12.70;99.90;;;;;;10431895;28;20216;-72
2023/04/12 15:38:53;;;;;;;1.97;0.80;;;13.10;99.90;;;;;;10427417;28;20706;-71
2023/04/12 15:43:53;;;;;;;1.47;0.70;;;13.40;99.90;;;;;;10415066;28;20233;-73
2023/04/12 15:48:54;;;;;;;1.07;0.70;;;13.50;99.90;;;;;;10431654;28;20306;-72
2023/04/12 15:53:55;;;;;;;0.57;0.57;;;13.50;99.90;;;;;;10424016;28;20833;-72
2023/04/12 15:58:55;;;;;;;1.57;0.70;;;13.20;99.90;;;;;;10427682;28;20705;-74
2023/04/12 16:03:56;;;;;;;2.30;0.60;;;13.20;99.90;;;;;;10427664;28;20224;-72
2023/04/12 16:09:00;;;;;;;0.83;0.70;;;13.30;99.90;;;;;;10422550;28;20792;-72
2023/04/12 16:14:01;;;;;;;1.50;0.50;;;13.50;99.90;;;;;;10426476;28;20224;-72
2023/04/12 16:19:01;;;;;;;0.37;0.37;;;13.50;99.90;;;;;;10422621;28;20224;-72
2023/04/12 16:24:03;;;;;;;0.30;0.30;;;13.30;99.90;;;;;;10432584;28;20628;-73
2023/04/12 16:29:04;;;;;;;1.80;0.30;;;13.10;99.90;;;;;;10424417;28;20251;-72
2023/04/12 16:34:04;;;;;;;0.80;0.50;;;13.00;99.90;;;;;;10424293;28;20230;-73
2023/04/12 16:39:05;;;;;;;0.20;0.20;;;12.70;99.90;;;;;;10425310;28;20240;-72
2023/04/12 16:44:09;;;;;;;0.47;0.47;;;12.60;99.90;;;;;;10432594;28;20223;-72
2023/04/12 16:49:10;;;;;;;0.40;0.40;;;12.40;99.90;;;;;;10431858;28;20231;-72
2023/04/12 16:54:11;;;;;;;1.57;0.50;;;12.30;99.90;;;;;;10412512;28;20228;-72
2023/04/12 16:59:12;;;;;;;0.37;0.30;;;12.30;99.90;;;;;;10431999;28;20218;-73
2023/04/12 17:04:13;;;;;;;0.67;0.33;;;12.20;99.90;;;;;;10422127;28;20696;-73
2023/04/12 17:09:13;;;;;;;3.40;0.50;;;12.10;99.90;;;;;;10430102;28;20224;-73
2023/04/12 17:14:14;;;;;;;0.40;0.40;;;12.00;99.90;;;;;;10424353;28;20297;-72
2023/04/12 17:19:16;;;;;;;0.57;0.30;;;11.90;99.90;;;;;;10406492;28;20263;-74
2023/04/12 17:24:19;;;;;;;1.13;0.50;;;11.90;99.90;;;;;;10413352;28;20692;-71
2023/04/12 17:29:20;;;;;;;1.20;0.50;;;11.80;99.90;;;;;;10400077;28;20227;-73
2023/04/12 17:34:20;;;;;;;1.17;0.50;;;11.70;99.90;;;;;;10417233;28;20224;-73
2023/04/12 17:39:21;;;;;;;1.90;0.60;;;11.80;99.90;;;;;;10419261;28;20227;-73
2023/04/12 17:44:21;;;;;;;0.90;0.43;;;11.80;99.90;;;;;;10414414;28;20216;-74
2023/04/12 17:49:24;;;;;;;1.50;0.60;;;11.70;99.90;;;;;;10409745;28;20220;-73
2023/04/12 17:54:25;;;;;;;1.10;0.60;;;11.70;99.90;;;;;;10416716;28;20216;-70
2023/04/12 17:59:26;;;;;;;1.00;0.63;;;11.60;99.90;;;;;;10419032;28;20567;-73
2023/04/12 18:04:30;;;;;;;1.83;0.60;;;11.60;99.90;;;;;;10413133;28;20229;-70
2023/04/12 18:09:30;;;;;;;1.03;0.60;;;11.50;99.90;;;;;;10411109;28;20224;-72
2023/04/12 18:14:31;;;;;;;0.83;0.60;;;11.30;99.90;;;;;;10406306;28;20691;-73
2023/04/12 18:19:32;;;;;;;0.50;0.50;;;11.20;99.90;;;;;;10414281;28;20307;-70
2023/04/12 18:24:32;;;;;;;1.07;0.77;;;11.10;99.90;;;;;;10413347;28;20278;-75
2023/04/12 18:29:33;;;;;;;1.17;0.50;;;11.00;99.90;;;;;;10409897;28;20315;-75
2023/04/12 18:34:33;;;;;;;2.60;1.03;;;10.90;99.90;;;;;;10409790;28;20714;-74
2023/04/12 18:39:35;;;;;;;2.93;0.70;;;10.80;99.90;;;;;;10437560;28;20228;-75
2023/04/12 18:44:36;;;;;;;1.47;0.60;;;10.70;99.90;;;;;;10417430;28;20224;-74
2023/04/12 18:49:37;;;;;;;2.07;0.60;;;10.80;99.90;;;;;;10426016;28;20262;-74
2023/04/12 18:54:38;;;;;;;2.93;1.10;;;10.80;99.90;;;;;;10418467;28;20262;-74
2023/04/12 18:59:38;;;;;;;1.37;0.80;;;10.90;99.90;;;;;;10409080;28;20230;-75
2023/04/12 19:04:40;;;;;;;1.97;0.50;;;11.00;99.90;;;;;;10424943;28;20224;-75
2023/04/12 19:09:41;;;;;;;3.77;0.90;;;11.10;99.90;;;;;;10414993;28;20231;-74
2023/04/12 19:14:42;;;;;;;2.20;0.63;;;11.20;99.90;;;;;;10428498;28;20212;-75
2023/04/12 19:19:42;;;;;;;1.33;0.60;;;11.00;99.90;;;;;;10417913;28;20628;-74
2023/04/12 19:24:46;;;;;;;3.83;0.70;;;10.80;99.90;;;;;;10422940;28;20220;-75
2023/04/12 19:29:48;;;;;;;1.40;0.50;;;10.30;99.90;;;;;;10426457;28;20224;-74
2023/04/12 19:34:50;;;;;;;1.40;0.70;;;10.00;99.90;;;;;;10427795;28;20208;-72
2023/04/12 19:39:50;;;;;;;4.50;0.77;;;9.80;99.90;;;;;;10420026;28;20220;-74
2023/04/12 19:44:51;;;;;;;1.00;0.40;;;9.80;99.90;;;;;;10422667;28;20779;-72
2023/04/12 19:49:52;;;;;;;1.33;0.80;;;9.70;99.90;;;;;;10419672;28;20255;-72
2023/04/12 19:54:55;;;;;;;3.10;0.60;;;9.60;99.90;;;;;;10416836;28;20219;-72
2023/04/12 19:59:56;;;;;;;1.43;0.80;;;9.60;99.90;;;;;;10412561;28;20236;-73
2023/04/12 20:04:57;;;;;;;1.50;0.83;;;9.40;99.90;;;;;;10428341;28;20245;-74
2023/04/12 20:09:59;;;;;;;2.97;0.93;;;9.20;99.90;;;;;;10412517;28;20220;-72
2023/04/12 20:15:03;;;;;;;1.73;1.10;;;9.00;99.90;;;;;;10419109;28;20204;-74
2023/04/12 20:20:06;;;;;;;3.00;0.97;;;8.80;99.90;;;;;;10416099;28;20223;-73
2023/04/12 20:25:10;;;;;;;2.13;0.83;;;8.80;99.90;;;;;;10423086;28;20225;-73
2023/04/12 20:30:15;;;;;;;0.50;0.40;;;8.90;99.90;;;;;;10421402;28;20204;-70
2023/04/12 20:35:17;;;;;;;4.27;0.97;;;8.90;99.90;;;;;;10409228;28;20184;-70
2023/04/12 20:40:18;;;;;;;0.90;0.80;;;8.80;99.90;;;;;;10414458;28;20531;-72
2023/04/12 20:45:20;;;;;;;0.97;0.90;;;8.70;99.90;;;;;;10408675;28;20237;-70
2023/04/12 20:50:21;;;;;;;1.63;0.77;;;8.50;99.90;;;;;;10427447;28;20219;-74
2023/04/12 20:55:23;;;;;;;2.47;0.97;;;8.40;99.90;;;;;;10406383;28;20697;-69
2023/04/12 21:00:28;;;;;;;2.20;1.20;;;8.30;99.90;;;;;;10419640;28;20230;-72
2023/04/12 21:05:32;;;;;;;3.83;1.07;;;8.20;99.90;;;;;;10404410;28;20265;-69
2023/04/12 21:10:32;;;;;;;2.67;0.93;;;8.10;99.90;;;;;;10422817;28;20330;-70
2023/04/12 21:15:34;;;;;;;2.63;1.10;;;8.10;99.90;;;;;;10411983;28;20272;-70
2023/04/12 21:20:34;;;;;;;1.80;0.80;;;8.10;99.90;;;;;;10416768;28;20224;-70
2023/04/12 21:25:35;;;;;;;0.90;0.90;;;8.00;99.90;;;;;;10418273;28;20223;-69
2023/04/12 21:30:35;;;;;;;1.47;0.80;;;8.00;99.90;;;;;;10420793;28;20699;-69
2023/04/12 21:35:36;;;;;;;1.57;0.70;;;8.00;99.90;;;;;;10414505;28;20228;-70
2023/04/12 21:40:37;;;;;;;3.43;0.70;;;8.00;99.90;;;;;;10424128;28;20289;-69
2023/04/12 21:45:38;;;;;;;2.50;1.07;;;8.00;99.90;;;;;;10411679;28;20230;-69
2023/04/12 21:50:38;;;;;;;1.90;1.00;;;8.00;99.90;;;;;;10417454;28;20228;-70
2023/04/12 21:55:39;;;;;;;1.07;0.90;;;8.00;99.90;;;;;;10417949;28;20271;-71
2023/04/12 22:00:40;;;;;;;3.33;1.10;;;7.90;99.90;;;;;;10411496;28;20219;-70
2023/04/12 22:05:41;;;;;;;2.03;0.80;;;7.90;99.90;;;;;;10406294;28;20658;-70
2023/04/12 22:10:41;;;;;;;1.00;0.60;;;7.90;99.90;;;;;;10405263;28;20318;-70
2023/04/12 22:15:42;;;;;;;1.57;0.70;;;7.90;99.90;;;;;;10421688;28;20246;-71
2023/04/12 22:20:43;;;;;;;1.23;0.70;;;7.90;99.90;;;;;;10418734;28;20216;-69
2023/04/12 22:25:44;;;;;;;0.60;0.60;;;7.80;99.90;;;;;;10424169;28;20775;-69
2023/04/12 22:30:46;;;;;;;1.33;0.97;;;7.70;99.90;;;;;;10429933;28;20699;-70
2023/04/12 22:35:47;;;;;;;0.93;0.80;;;7.70;99.90;;;;;;10425001;28;20240;-70
2023/04/12 22:40:48;;;;;;;0.83;0.60;;;7.70;99.90;;;;;;10425515;28;20244;-71
2023/04/12 22:45:52;;;;;;;1.70;0.60;;;7.70;99.90;;;;;;10426572;28;20267;-71
2023/04/12 22:50:53;;;;;;;1.17;0.60;;;7.60;99.90;;;;;;10429201;28;20224;-70
2023/04/12 22:55:56;;;;;;;1.33;0.50;;;7.60;99.90;;;;;;10423368;28;20231;-71
2023/04/12 23:00:57;;;;;;;1.00;0.67;;;7.60;99.90;;;;;;10429943;28;20300;-71
2023/04/12 23:05:58;;;;;;;1.50;0.67;;;7.70;99.90;;;;;;10420268;28;20263;-71
2023/04/12 23:11:03;;;;;;;1.80;0.70;;;7.60;99.90;;;;;;10429477;28;20227;-71
2023/04/12 23:16:05;;;;;;;0.67;0.50;;;7.70;99.90;;;;;;10424747;28;20244;-71
2023/04/12 23:21:09;;;;;;;1.23;0.67;;;7.70;99.90;;;;;;10431784;28;20679;-71
2023/04/12 23:26:10;;;;;;;0.87;0.50;;;7.70;99.90;;;;;;10418607;28;20572;-72
2023/04/12 23:31:11;;;;;;;4.07;0.80;;;7.80;99.90;;;;;;10418814;28;20220;-70
2023/04/12 23:36:12;;;;;;;1.83;0.50;;;7.90;99.90;;;;;;10413009;28;20602;-71
2023/04/12 23:41:12;;;;;;;0.60;0.60;;;7.90;99.90;;;;;;10421901;28;20215;-71
2023/04/12 23:46:13;;;;;;;4.27;1.10;;;7.80;99.90;;;;;;10411619;28;20546;-71
2023/04/12 23:51:15;;;;;;;1.30;0.73;;;7.80;99.90;;;;;;10424490;28;20232;-70
2023/04/12 23:56:16;;;;;;;0.67;0.60;;;7.80;99.90;;;;;;10420656;28;20685;-71
